KAYS

Waycross-Ware County Airport

Waycross, Georgia, USA
METAR KAYS 231055Z AUTO 00000KT 10SM CLR 21/19 A3011 RMK AO2 LTG DSNT NW T02090192
Observed Flight Rules
May-23 @ 10:55 UTC (18 minutes ago) Visual Flight Rules
Visibility Clouds
10 miles
  • Clear skies
Temperatures Readings
Current 21°C / 70°F
Dewpoint 19°C / 66°F
Humidity 88%
Altimeter 30.11" Hg
Pressure 1020 hPa
Elevation 46
METAR KAYS 231055Z AUTO 00000KT 10SM CLR 21/19 A3011 RMK AO2 LTG DSNT NW T02090192
Observed Flight Rules
May-23 @ 10:55 UTC
(18 minutes ago)
VFR
Clouds
  • Clear skies
Temperature Dewpoint
21°C / 70°F 19°C / 66°F
Humidity Altimeter Pressure
88% 30.11" Hg 1020 hPa